createdAt,value
2023-05-02T00:01:20.119Z,7.83
2023-05-02T00:06:23.160Z,7.78
2023-05-02T00:11:26.426Z,7.74
2023-05-02T00:16:29.689Z,7.74
2023-05-02T00:21:33.162Z,7.80
2023-05-02T00:26:36.371Z,7.91
2023-05-02T00:31:43.438Z,8.00
2023-05-02T00:36:46.765Z,8.07
2023-05-02T00:41:49.667Z,8.11
2023-05-02T00:46:53.496Z,8.13
2023-05-02T00:51:56.903Z,8.10
2023-05-02T00:57:00.150Z,8.07
2023-05-02T01:02:08.570Z,8.06
2023-05-02T01:07:37.963Z,8.03
2023-05-02T01:12:57.860Z,8.01
2023-05-02T01:18:02.586Z,7.99
2023-05-02T01:23:09.607Z,8.00
2023-05-02T01:28:24.172Z,8.03
2023-05-02T01:33:28.715Z,8.07
2023-05-02T01:38:33.363Z,8.09
2023-05-02T01:43:38.412Z,8.10
2023-05-02T01:48:44.895Z,8.08
2023-05-02T01:53:49.843Z,8.06
2023-05-02T01:58:54.384Z,8.05
2023-05-02T02:03:58.902Z,8.02
2023-05-02T02:09:03.987Z,7.98
2023-05-02T02:14:12.715Z,7.94
2023-05-02T02:19:16.225Z,7.94
2023-05-02T02:24:21.376Z,7.89
2023-05-02T02:29:24.486Z,7.84
2023-05-02T02:34:27.702Z,7.77
2023-05-02T02:39:49.681Z,7.64
2023-05-02T02:44:59.682Z,7.49
2023-05-02T02:50:21.658Z,7.38
2023-05-02T02:55:31.304Z,7.30
2023-05-02T03:00:35.343Z,7.23
2023-05-02T03:05:38.857Z,7.15
2023-05-02T03:10:41.966Z,7.09
2023-05-02T03:15:57.094Z,7.06
2023-05-02T03:21:01.275Z,7.01
2023-05-02T03:26:04.385Z,7.02
2023-05-02T03:31:07.474Z,7.11
2023-05-02T03:36:14.292Z,7.28
2023-05-02T03:41:17.499Z,7.42
2023-05-02T03:46:20.514Z,7.63
2023-05-02T03:51:23.603Z,7.87
2023-05-02T03:56:26.707Z,8.14
2023-05-02T04:01:29.919Z,8.42
2023-05-02T04:06:33.381Z,8.80
2023-05-02T04:11:36.536Z,9.34
2023-05-02T04:16:39.679Z,9.81
2023-05-02T04:21:43.058Z,10.04
2023-05-02T04:26:48.936Z,10.19
2023-05-02T04:31:52.338Z,10.31
2023-05-02T04:36:55.493Z,10.49
2023-05-02T04:41:58.655Z,10.67
2023-05-02T04:47:01.863Z,11.39
2023-05-02T04:52:05.169Z,12.74
2023-05-02T04:57:10.217Z,13.53
2023-05-02T05:02:13.503Z,13.79
2023-05-02T05:07:16.635Z,14.26
2023-05-02T05:12:20.361Z,15.22
2023-05-02T05:17:23.510Z,16.03
2023-05-02T05:22:26.669Z,16.32
2023-05-02T05:27:29.777Z,16.38
2023-05-02T05:32:36.066Z,16.27
2023-05-02T05:37:39.976Z,15.95
2023-05-02T05:42:43.133Z,15.58
2023-05-02T05:47:46.627Z,15.26
2023-05-02T05:52:49.711Z,15.06
2023-05-02T05:57:53.019Z,14.78
2023-05-02T06:02:56.452Z,14.52
2023-05-02T06:08:00.147Z,14.70
2023-05-02T06:13:03.360Z,15.57
2023-05-02T06:18:06.759Z,16.88
2023-05-02T06:23:10.721Z,18.08
2023-05-02T06:28:14.845Z,18.83
2023-05-02T06:33:18.452Z,19.02
2023-05-02T06:38:22.681Z,18.95
2023-05-02T06:43:26.301Z,19.04
2023-05-02T06:48:29.763Z,19.02
2023-05-02T06:53:33.384Z,18.72
2023-05-02T06:58:36.539Z,18.21
2023-05-02T07:03:40.450Z,17.68
2023-05-02T07:08:44.992Z,17.15
2023-05-02T07:13:48.935Z,16.81
2023-05-02T07:18:53.521Z,16.63
2023-05-02T07:23:58.315Z,16.54
2023-05-02T07:29:03.324Z,16.50
2023-05-02T07:34:07.696Z,16.32
2023-05-02T07:39:11.104Z,16.07
2023-05-02T07:44:14.109Z,15.78
2023-05-02T07:49:17.115Z,15.49
2023-05-02T07:54:20.844Z,15.12
2023-05-02T07:59:24.156Z,14.94
2023-05-02T08:04:27.863Z,14.89
2023-05-02T08:09:31.381Z,14.86
2023-05-02T08:14:35.106Z,14.93
2023-05-02T08:19:38.407Z,15.02
2023-05-02T08:24:41.413Z,15.23
2023-05-02T08:29:44.618Z,15.58
2023-05-02T08:34:47.629Z,16.11
2023-05-02T08:39:50.738Z,16.73
2023-05-02T08:44:53.730Z,17.16
2023-05-02T08:49:57.162Z,17.27
2023-05-02T08:55:02.306Z,17.17
2023-05-02T09:00:09.822Z,16.94
2023-05-02T09:05:19.519Z,16.67
2023-05-02T09:10:25.348Z,16.46
2023-05-02T09:15:28.439Z,16.28
2023-05-02T09:20:40.460Z,16.04
2023-05-02T09:25:43.453Z,15.80
2023-05-02T09:30:48.467Z,15.43
2023-05-02T09:35:56.062Z,15.01
2023-05-02T09:40:59.530Z,14.65
2023-05-02T09:46:04.489Z,14.47
2023-05-02T09:51:17.006Z,14.55
2023-05-02T09:56:20.016Z,14.88
2023-05-02T10:01:23.169Z,15.16
2023-05-02T10:06:28.489Z,15.39
2023-05-02T10:11:32.924Z,15.67
2023-05-02T10:16:37.567Z,16.06
2023-05-02T10:21:40.861Z,16.57
2023-05-02T10:26:44.385Z,17.20
2023-05-02T10:31:49.457Z,17.98
2023-05-02T10:36:52.636Z,18.55
2023-05-02T10:41:58.055Z,19.02
2023-05-02T10:47:01.536Z,19.64
2023-05-02T10:52:24.582Z,20.43
2023-05-02T10:57:27.895Z,21.11
2023-05-02T11:02:32.906Z,21.53
2023-05-02T11:07:38.071Z,21.94
2023-05-02T11:12:46.021Z,22.10
2023-05-02T11:18:04.364Z,22.37
2023-05-02T11:23:17.038Z,22.47
2023-05-02T11:28:38.960Z,22.69
2023-05-02T11:33:42.081Z,22.99
2023-05-02T11:38:45.168Z,23.25
2023-05-02T11:43:48.173Z,23.33
2023-05-02T11:48:51.378Z,23.23
2023-05-02T11:53:54.594Z,23.24
2023-05-02T11:58:59.727Z,23.40
2023-05-02T12:04:07.839Z,23.41
2023-05-02T12:09:14.558Z,22.87
2023-05-02T12:14:17.968Z,22.09
2023-05-02T12:19:27.849Z,21.63
2023-05-02T12:24:32.288Z,21.30
2023-05-02T12:29:39.070Z,21.03
2023-05-02T12:34:42.901Z,20.89
2023-05-02T12:39:45.992Z,20.80
2023-05-02T12:44:52.069Z,20.80
2023-05-02T12:49:59.761Z,20.82
2023-05-02T12:55:18.670Z,20.68
2023-05-02T13:00:22.373Z,20.37
2023-05-02T13:05:26.504Z,20.27
2023-05-02T13:10:29.641Z,20.28
2023-05-02T13:15:32.814Z,20.30
2023-05-02T13:20:35.925Z,20.17
2023-05-02T13:25:39.340Z,19.82
2023-05-02T13:30:42.507Z,19.28
2023-05-02T13:35:45.755Z,18.68
2023-05-02T13:40:49.481Z,18.12
2023-05-02T13:45:52.858Z,17.66
2023-05-02T13:50:56.210Z,17.54
2023-05-02T13:55:59.615Z,17.76
2023-05-02T14:01:03.113Z,18.02
2023-05-02T14:06:06.619Z,18.12
2023-05-02T14:11:09.766Z,18.08
2023-05-02T14:16:12.884Z,18.04
2023-05-02T14:21:17.078Z,17.92
2023-05-02T14:26:20.700Z,17.55
2023-05-02T14:31:24.019Z,17.17
2023-05-02T14:36:27.419Z,16.81
2023-05-02T14:41:33.500Z,16.53
2023-05-02T14:46:36.711Z,16.24
2023-05-02T14:51:40.227Z,15.83
2023-05-02T14:56:44.155Z,15.48
2023-05-02T15:01:48.924Z,15.24
2023-05-02T15:06:54.891Z,14.85
2023-05-02T15:11:58.595Z,14.20
2023-05-02T15:17:01.883Z,13.56
2023-05-02T15:22:05.226Z,13.04
2023-05-02T15:27:09.873Z,12.56
2023-05-02T15:32:12.893Z,12.26
2023-05-02T15:37:15.956Z,12.01
2023-05-02T15:42:19.219Z,11.78
2023-05-02T15:47:22.804Z,11.57
2023-05-02T15:52:26.404Z,11.46
2023-05-02T15:57:29.814Z,11.33
2023-05-02T16:02:34.464Z,11.23
2023-05-02T16:07:38.990Z,11.19
2023-05-02T16:12:42.120Z,11.17
2023-05-02T16:17:45.329Z,11.09
2023-05-02T16:22:48.712Z,11.02
2023-05-02T16:27:51.851Z,11.05
2023-05-02T16:32:55.044Z,11.07
2023-05-02T16:37:58.250Z,10.96
2023-05-02T16:43:01.772Z,10.83
2023-05-02T16:48:05.324Z,10.76
2023-05-02T16:53:08.494Z,10.70
2023-05-02T16:58:11.479Z,10.68
2023-05-02T17:03:14.701Z,10.77
2023-05-02T17:08:17.691Z,10.88
2023-05-02T17:13:20.797Z,11.03
2023-05-02T17:18:24.650Z,11.12
2023-05-02T17:23:30.718Z,11.18
2023-05-02T17:28:33.909Z,11.13
2023-05-02T17:33:38.002Z,11.07
2023-05-02T17:38:42.181Z,10.83
2023-05-02T17:43:45.481Z,10.57
2023-05-02T17:48:49.312Z,10.36
2023-05-02T17:53:53.118Z,10.13
2023-05-02T17:58:56.652Z,9.92
2023-05-02T18:04:00.527Z,9.73
2023-05-02T18:09:04.287Z,9.55
2023-05-02T18:14:07.485Z,9.41
2023-05-02T18:19:10.796Z,9.28
2023-05-02T18:24:14.363Z,9.17
2023-05-02T18:29:17.526Z,9.10
2023-05-02T18:34:21.239Z,9.07
2023-05-02T18:39:24.348Z,9.02
2023-05-02T18:44:27.759Z,8.96
2023-05-02T18:49:31.173Z,8.87
2023-05-02T18:54:34.786Z,8.79
2023-05-02T18:59:38.001Z,8.72
2023-05-02T19:04:41.316Z,8.65
2023-05-02T19:09:44.923Z,8.58
2023-05-02T19:14:51.824Z,8.52
2023-05-02T19:19:56.210Z,8.45
2023-05-02T19:25:00.941Z,8.40
2023-05-02T19:30:05.418Z,8.35
2023-05-02T19:35:10.008Z,8.31
2023-05-02T19:40:13.826Z,8.27
2023-05-02T19:45:18.860Z,8.24
2023-05-02T19:50:22.063Z,8.20
2023-05-02T19:55:25.904Z,8.16
2023-05-02T20:00:29.502Z,8.11
2023-05-02T20:05:33.229Z,8.05
2023-05-02T20:10:36.731Z,7.99
2023-05-02T20:15:40.662Z,7.93
2023-05-02T20:20:43.984Z,7.84
2023-05-02T20:25:47.390Z,7.72
2023-05-02T20:30:50.895Z,7.59
2023-05-02T20:35:54.961Z,7.47
2023-05-02T20:40:58.856Z,7.33
2023-05-02T20:46:08.604Z,7.21
2023-05-02T20:51:11.717Z,7.07
2023-05-02T20:56:15.984Z,6.93
2023-05-02T21:01:19.166Z,6.77
2023-05-02T21:06:22.706Z,6.57
2023-05-02T21:11:26.740Z,6.34
2023-05-02T21:16:29.991Z,6.11
2023-05-02T21:21:33.351Z,5.88
2023-05-02T21:26:36.630Z,5.64
2023-05-02T21:31:40.271Z,5.40
2023-05-02T21:36:43.783Z,5.17
2023-05-02T21:41:47.114Z,4.98
2023-05-02T21:46:50.968Z,4.82
2023-05-02T21:51:54.003Z,4.66
2023-05-02T21:56:57.302Z,4.54
2023-05-02T22:02:00.678Z,4.45
2023-05-02T22:07:04.252Z,4.37
2023-05-02T22:12:07.310Z,4.29
2023-05-02T22:17:10.556Z,4.19
2023-05-02T22:22:14.174Z,4.05
2023-05-02T22:27:17.696Z,3.88
2023-05-02T22:32:22.844Z,3.71
2023-05-02T22:37:26.157Z,3.54
2023-05-02T22:42:29.360Z,3.35
2023-05-02T22:47:32.591Z,3.18
2023-05-02T22:52:38.237Z,3.05
2023-05-02T22:57:41.445Z,2.93
2023-05-02T23:02:44.976Z,2.80
2023-05-02T23:07:48.886Z,2.66
2023-05-02T23:12:51.901Z,2.51
2023-05-02T23:17:55.177Z,2.37
2023-05-02T23:22:58.501Z,2.25
2023-05-02T23:28:01.611Z,2.16
2023-05-02T23:33:04.662Z,2.05
2023-05-02T23:38:11.098Z,1.97
2023-05-02T23:43:14.305Z,1.92
2023-05-02T23:48:17.311Z,1.88
2023-05-02T23:53:20.311Z,1.78
2023-05-02T23:58:23.241Z,1.68
